Aviation Digital Data Service (ADDS)

Output produced by METARs form (1723 UTC 16 June 2019)
found at http://www.aviationweather.gov/metar/data/
 
EPZG 161700Z 29008KT 240V320 CAVOK 23/09 Q1019
TAF EPZG 161430Z 1615/1624 30008KT CAVOK
       
EPKK 161700Z 16004KT 9999 FEW020 22/19 Q1018
TAF EPKK 161430Z 1615/1715 30007KT CAVOK 
     TEMPO 1615/1618 VRB24G40KT 2500 TSRA BKN025CB 
     PROB30 
     TEMPO 1615/1617 1400 +TSGR BKN013CB 
     TEMPO 1618/1622 SHRA BKN014 BKN020CB
       
TAF EPDE 161700Z 1618/1703 33010KT CAVOK
       
EPSC 161700Z 32008KT CAVOK 20/11 Q1019
TAF EPSC 161130Z 1612/1712 29013KT 9999 SCT030 
     BECMG 1616/1618 VRB03KT
       
EPRZ 161700Z 29020G34KT 9999 -TSRA BKN040CB 22/18 Q1016
TAF EPRZ 161130Z 1612/1712 33010KT 9999 SCT030 
     TEMPO 1612/1703 VRB24G40KT 2500 TSRA BKN025CB 
     PROB30 
     TEMPO 1615/1703 1400 +TSGR BKN013CB 
     TEMPO 1703/1707 SHRA BKN014 BKN020CB
       
TAF EPKS 161700Z 1618/1703 31008KT CAVOK
       
EPPO 161700Z 32009KT CAVOK 23/10 Q1019
TAF EPPO 161130Z 1612/1712 30010KT 9999 SCT030
       
EPLL 161700Z 30007KT 9999 FEW046 25/14 Q1017
TAF EPLL 161130Z 1612/1712 31010KT 9999 SCT035 
     PROB40 
     TEMPO 1612/1617 34015G25KT SCT020TCU
       
EPWA 161700Z 32009KT 9999 FEW040 24/15 Q1016 NOSIG
TAF EPWA 161430Z 1615/1715 31010KT 9999 SCT045 
     PROB40 
     TEMPO 1615/1618 33015G25KT SCT030TCU
       
EPKT 161700Z 30003KT CAVOK 22/18 Q1018
TAF EPKT 161130Z 1612/1712 34010KT 9999 SCT030 
     TEMPO 1612/1618 VRB24G40KT 2500 TSRA BKN025CB 
     PROB30 
     TEMPO 1613/1617 1400 +TSGR BKN013CB 
     TEMPO 1618/1702 SHRA BKN014 BKN020CB
       
EPGD 161700Z 28017KT 9999 SCT006 BKN009 16/14 Q1017
TAF EPGD 161130Z 1612/1712 27014KT 9999 BKN008 
     PROB40 
     TEMPO 1612/1617 28015G25KT -DZ BKN004 
     BECMG 1617/1619 BKN012 
     BECMG 1619/1621 SCT020 
     BECMG 1705/1708 33007KT
       
EPWR 161700Z 30005KT 260V320 CAVOK 22/13 Q1019
TAF EPWR 161430Z 1615/1715 31010KT CAVOK 
     TEMPO 1615/1618 SCT030CB 
     BECMG 1618/1621 VRB02KT
       
TAF EPSN 161700Z 1618/1703 28008KT CAVOK
       
EPBY 161700Z 32016KT 9999 FEW041 21/10 Q1018
TAF EPBY 161130Z 1612/1712 29014KT 9999 SCT035 
     PROB40 
     TEMPO 1612/1616 30015G25KT 
     BECMG 1616/1618 27004KT 
     BECMG 1704/1707 36010KT
       
EPSY 161700Z 30008KT 260V340 9999 BKN015 19/16 Q1017
TAF EPSY 161430Z 1615/1624 29012KT 9999 SCT025 
     PROB40 1617/1624 BKN015